MDT,Max TemperatureF,Mean TemperatureF,Min TemperatureF,Max Dew PointF,MeanDew PointF,Min DewpointF,Max Humidity, Mean Humidity, Min Humidity, Max Sea Level PressureIn, Mean Sea Level PressureIn, Min Sea Level PressureIn, Max VisibilityMiles, Mean VisibilityMiles, Min VisibilityMiles, Max Wind SpeedMPH, Mean Wind SpeedMPH, Max Gust SpeedMPH,PrecipitationIn, CloudCover, Events, WindDirDegrees
2012-10-1,51,42,32,30,26,23,81,59,35,30.71,30.66,30.62,,,,25,9,28,0.00,3,,284
2012-10-2,53,43,33,28,23,19,70,50,28,30.61,30.56,30.52,,,,29,23,34,0.00,0,,259
2012-10-3,51,43,35,21,17,12,52,38,22,30.56,30.50,30.46,,,,50,28,63,0.00,1,,269
2012-10-4,48,40,33,30,21,14,87,49,32,30.58,30.53,30.46,,,,56,23,68,0.00,5,,253
2012-10-5,42,37,32,32,19,9,100,57,27,30.46,30.39,30.35,,,,50,32,62,0.00,5,Thunderstorm,253
2012-10-6,37,32,26,10,0,-11,41,28,14,30.35,30.32,30.28,,,,39,31,54,0.00,2,,263
2012-10-7,37,29,21,1,0,-4,42,31,20,30.40,30.33,30.25,,,,34,21,41,0.00,2,,254
2012-10-8,42,32,23,3,-2,-8,36,24,13,30.40,30.37,30.34,,,,41,36,55,0.00,0,,263
2012-10-9,44,37,30,14,10,3,44,35,25,30.51,30.40,30.32,,,,44,36,56,0.00,0,,268
2012-10-10,46,39,32,23,19,14,60,47,34,30.55,30.51,30.47,,,,45,28,53,0.00,0,,262
2012-10-11,53,43,33,30,22,19,87,52,28,30.60,30.54,30.50,,,,31,21,34,0.00,2,,236
2012-10-12,37,32,26,36,31,25,100,92,75,30.61,30.44,30.28,,,,144,20,32,0.00,6,Thunderstorm,203
2012-10-13,28,24,21,28,24,19,100,95,93,30.51,30.31,30.19,,,,32,32,,0.00,8,,90
2012-10-14,,,,,,,,,,,,,,,,,,,0.00,,,-1
2012-10-15,42,38,33,21,19,14,60,49,36,30.56,30.50,30.43,,,,47,36,56,0.00,0,,264
2012-10-16,44,36,28,27,23,19,80,63,37,30.43,30.27,30.09,,,,54,39,71,0.00,2,,264
2012-10-17,35,30,24,30,4,-8,93,37,18,30.32,30.20,30.08,,,,56,46,67,0.00,1,,270
2012-10-18,41,32,23,12,8,0,51,41,31,30.51,30.41,30.32,,,,47,38,54,0.00,0,,263
2012-10-19,44,35,26,18,12,3,59,43,19,30.49,30.44,30.38,,,,51,36,60,0.00,0,,264
2012-10-20,48,39,30,14,10,3,51,34,19,30.39,30.33,30.27,,,,46,33,56,0.00,0,,259
2012-10-21,46,39,32,21,18,5,64,47,30,30.35,30.31,30.27,,,,39,28,48,0.00,0,,263
2012-10-22,46,39,32,23,19,14,69,52,31,30.34,30.29,30.25,,,,34,23,45,0.00,0,,243
2012-10-23,44,37,30,25,19,9,70,52,25,30.28,30.25,30.21,,,,40,32,47,0.00,3,,241
2012-10-24,42,30,17,21,18,12,93,59,31,30.27,30.13,29.97,,,,56,32,70,0.00,4,,218
2012-10-25,19,16,12,14,10,5,93,84,54,30.25,30.17,30.10,,,,40,40,,0.00,8,,90
2012-10-26,21,13,5,9,0,-15,92,58,26,30.42,30.34,30.25,,,,37,16,37,0.00,1,,250
2012-10-27,30,22,14,9,5,-4,68,51,37,30.38,30.29,30.25,,,,50,38,59,0.00,2,,268
2012-10-28,37,28,19,21,16,7,74,62,48,30.48,30.40,30.33,,,,47,38,54,0.00,0,,267
2012-10-29,41,34,26,23,21,19,80,66,45,30.58,30.53,30.48,,,,40,31,46,0.00,0,,266
2012-10-30,42,34,26,21,18,14,74,53,34,30.58,30.55,30.53,,,,29,17,36,0.00,0,,254
2012-10-31,44,37,30,18,12,7,60,38,21,30.60,30.57,30.54,,,,16,8,17,0.00,0,,242